createdAt,value
2018-04-27T00:01:53.167Z,69.06
2018-04-27T00:04:20.683Z,69.62
2018-04-27T00:06:48.169Z,68.65
2018-04-27T00:09:15.680Z,68.92
2018-04-27T00:11:43.232Z,69.49
2018-04-27T00:14:10.711Z,69.64
2018-04-27T00:16:38.198Z,68.86
2018-04-27T00:19:05.711Z,69.19
2018-04-27T00:21:33.251Z,69.25
2018-04-27T00:24:00.774Z,69.41
2018-04-27T00:26:28.274Z,69.45
2018-04-27T00:28:55.784Z,69.25
2018-04-27T00:31:23.374Z,69.42
2018-04-27T00:33:50.878Z,69.69
2018-04-27T00:36:18.378Z,69.80
2018-04-27T00:38:45.848Z,69.99
2018-04-27T00:41:13.407Z,70.53
2018-04-27T00:43:40.893Z,70.03
2018-04-27T00:46:08.474Z,70.08
2018-04-27T00:48:35.953Z,70.60
2018-04-27T00:51:03.866Z,70.37
2018-04-27T00:53:31.321Z,69.87
2018-04-27T00:55:58.804Z,69.79
2018-04-27T00:58:26.254Z,69.60
2018-04-27T01:00:53.710Z,69.28
2018-04-27T01:03:21.193Z,69.06
2018-04-27T01:05:48.648Z,69.23
2018-04-27T01:08:16.130Z,69.48
2018-04-27T01:10:43.663Z,69.65
2018-04-27T01:13:11.226Z,69.95
2018-04-27T01:15:38.680Z,69.74
2018-04-27T01:18:06.570Z,69.75
2018-04-27T01:20:34.035Z,70.01
2018-04-27T01:23:01.491Z,69.64
2018-04-27T01:25:28.958Z,69.99
2018-04-27T01:27:56.406Z,69.96
2018-04-27T01:30:23.865Z,70.05
2018-04-27T01:32:51.352Z,70.67
2018-04-27T01:35:18.812Z,70.76
2018-04-27T01:37:46.287Z,70.17
2018-04-27T01:40:13.742Z,71.19
2018-04-27T01:42:41.212Z,72.23
2018-04-27T01:45:09.354Z,72.76
2018-04-27T01:47:36.798Z,73.30
2018-04-27T01:50:04.269Z,73.96
2018-04-27T01:52:31.702Z,74.32
2018-04-27T01:54:59.157Z,74.85
2018-04-27T01:57:26.607Z,75.27
2018-04-27T01:59:54.069Z,75.56
2018-04-27T02:02:21.509Z,75.91
2018-04-27T02:04:48.951Z,76.48
2018-04-27T02:07:16.407Z,77.17
2018-04-27T02:09:43.854Z,77.61
2018-04-27T02:12:11.335Z,78.19
2018-04-27T02:14:38.795Z,78.70
2018-04-27T02:17:06.237Z,78.92
2018-04-27T02:19:33.689Z,79.01
2018-04-27T02:22:01.150Z,78.90
2018-04-27T02:24:28.604Z,78.81
2018-04-27T02:26:56.079Z,78.47
2018-04-27T02:29:23.513Z,78.54
2018-04-27T02:31:50.954Z,78.69
2018-04-27T02:34:18.424Z,78.62
2018-04-27T02:36:45.872Z,78.54
2018-04-27T02:39:13.308Z,78.48
2018-04-27T02:41:40.766Z,78.71
2018-04-27T02:44:08.619Z,78.83
2018-04-27T02:46:36.069Z,79.15
2018-04-27T02:49:03.535Z,79.17
2018-04-27T02:51:30.993Z,78.42
2018-04-27T02:53:58.458Z,78.14
2018-04-27T02:56:25.906Z,77.56
2018-04-27T02:58:53.412Z,77.28
2018-04-27T03:01:20.860Z,77.34
2018-04-27T03:03:49.737Z,77.56
2018-04-27T03:06:17.203Z,78.01
2018-04-27T03:08:44.653Z,78.33
2018-04-27T03:11:12.117Z,78.65
2018-04-27T03:13:39.577Z,79.71
2018-04-27T03:16:07.032Z,80.42
2018-04-27T03:18:34.481Z,81.30
2018-04-27T03:21:01.937Z,81.99
2018-04-27T03:23:29.397Z,82.41
2018-04-27T03:25:57.517Z,82.83
2018-04-27T03:28:24.983Z,82.98
2018-04-27T03:30:52.444Z,82.87
2018-04-27T03:33:19.900Z,82.67
2018-04-27T03:35:47.397Z,82.69
2018-04-27T03:38:14.853Z,82.62
2018-04-27T03:40:42.321Z,82.35
2018-04-27T03:43:09.810Z,82.35
2018-04-27T03:45:37.261Z,82.53
2018-04-27T03:48:04.726Z,82.37
2018-04-27T03:50:32.177Z,82.21
2018-04-27T03:52:59.634Z,82.17
2018-04-27T03:55:27.078Z,82.07
2018-04-27T03:57:54.520Z,81.84
2018-04-27T04:00:33.762Z,81.45
2018-04-27T04:03:12.890Z,81.11
2018-04-27T04:05:40.399Z,81.01
2018-04-27T04:08:07.861Z,80.80
2018-04-27T04:10:35.330Z,80.57
2018-04-27T04:13:02.797Z,80.16
2018-04-27T04:15:30.241Z,79.80
2018-04-27T04:17:57.689Z,79.46
2018-04-27T04:20:25.165Z,79.24
2018-04-27T04:22:52.619Z,78.85
2018-04-27T04:25:20.114Z,78.23
2018-04-27T04:27:47.572Z,77.86
2018-04-27T04:30:15.109Z,77.69
2018-04-27T04:32:42.631Z,77.63
2018-04-27T04:35:10.092Z,78.45
2018-04-27T04:37:37.553Z,77.94
2018-04-27T04:40:05.033Z,77.64
2018-04-27T04:42:32.618Z,77.21
2018-04-27T04:45:00.130Z,77.20
2018-04-27T04:47:27.601Z,76.87
2018-04-27T04:49:55.176Z,76.63
2018-04-27T04:52:23.222Z,76.96
2018-04-27T04:54:50.775Z,77.59
2018-04-27T04:57:18.269Z,77.63
2018-04-27T04:59:45.721Z,77.41
2018-04-27T05:02:13.198Z,76.81
2018-04-27T05:04:40.658Z,76.11
2018-04-27T05:07:08.101Z,76.24
2018-04-27T05:09:35.576Z,75.24
2018-04-27T05:12:03.042Z,75.09
2018-04-27T05:14:30.546Z,74.78
2018-04-27T05:16:58.036Z,74.24
2018-04-27T05:19:25.481Z,74.02
2018-04-27T05:21:52.946Z,73.66
2018-04-27T05:24:20.515Z,72.69
2018-04-27T05:26:47.958Z,72.54
2018-04-27T05:29:15.435Z,72.11
2018-04-27T05:31:42.969Z,71.80
2018-04-27T05:34:10.447Z,70.66
2018-04-27T05:36:37.930Z,70.39
2018-04-27T05:39:06.323Z,70.14
2018-04-27T05:41:33.814Z,69.88
2018-04-27T05:44:01.294Z,68.92
2018-04-27T05:46:28.805Z,68.59
2018-04-27T05:48:56.396Z,68.40
2018-04-27T05:51:23.793Z,67.87
2018-04-27T05:53:51.248Z,67.88
2018-04-27T05:56:18.783Z,67.66
2018-04-27T05:58:46.270Z,66.89
2018-04-27T06:01:13.750Z,66.59
2018-04-27T06:03:53.001Z,66.60
2018-04-27T06:06:20.452Z,66.91
2018-04-27T06:08:47.901Z,66.48
2018-04-27T06:11:15.399Z,66.26
2018-04-27T06:13:42.860Z,66.05
2018-04-27T06:16:10.446Z,65.44
2018-04-27T06:18:37.879Z,64.89
2018-04-27T06:21:06.340Z,64.53
2018-04-27T06:23:33.816Z,64.40
2018-04-27T06:26:01.269Z,64.53
2018-04-27T06:28:28.777Z,64.42
2018-04-27T06:30:56.235Z,64.27
2018-04-27T06:33:23.722Z,63.92
2018-04-27T06:35:51.186Z,63.89
2018-04-27T06:38:18.643Z,63.79
2018-04-27T06:40:46.114Z,63.13
2018-04-27T06:43:13.610Z,62.63
2018-04-27T06:45:41.067Z,62.32
2018-04-27T06:48:08.564Z,61.72
2018-04-27T06:50:36.031Z,61.37
2018-04-27T06:53:03.487Z,61.34
2018-04-27T06:55:30.972Z,60.84
2018-04-27T06:57:58.445Z,59.09
2018-04-27T07:00:25.910Z,58.81
2018-04-27T07:02:53.387Z,58.65
2018-04-27T07:05:20.922Z,58.55
2018-04-27T07:07:48.359Z,57.81
2018-04-27T07:10:15.828Z,57.98
2018-04-27T07:12:43.357Z,57.86
2018-04-27T07:15:10.844Z,57.68
2018-04-27T07:17:38.278Z,58.01
2018-04-27T07:20:05.763Z,57.57
2018-04-27T07:22:33.295Z,57.49
2018-04-27T07:25:00.751Z,56.46
2018-04-27T07:27:28.238Z,55.14
2018-04-27T07:29:55.706Z,54.24
2018-04-27T07:32:23.177Z,52.73
2018-04-27T07:34:50.670Z,52.18
2018-04-27T07:37:18.166Z,52.27
2018-04-27T07:39:45.668Z,52.13
2018-04-27T07:42:13.231Z,51.24
2018-04-27T07:44:40.733Z,51.57
2018-04-27T07:47:08.211Z,50.53
2018-04-27T07:49:35.746Z,48.85
2018-04-27T07:52:03.231Z,48.72
2018-04-27T07:54:30.711Z,48.04
2018-04-27T07:56:58.194Z,48.41
2018-04-27T07:59:25.674Z,47.26
2018-04-27T08:01:53.248Z,47.75
2018-04-27T08:04:20.713Z,48.22
2018-04-27T08:06:48.237Z,48.20
2018-04-27T08:09:15.723Z,47.78
2018-04-27T08:11:43.239Z,47.90
2018-04-27T08:14:10.748Z,48.66
2018-04-27T08:16:39.126Z,48.06
2018-04-27T08:19:07.394Z,47.98
2018-04-27T08:21:34.888Z,48.59
2018-04-27T08:24:02.394Z,49.14
2018-04-27T08:26:29.952Z,49.39
2018-04-27T08:29:05.137Z,48.78
2018-04-27T08:31:32.684Z,49.62
2018-04-27T08:34:00.205Z,50.20
2018-04-27T08:36:27.676Z,50.13
2018-04-27T08:38:55.174Z,47.68
2018-04-27T08:41:22.649Z,47.86
2018-04-27T08:43:50.188Z,47.11
2018-04-27T08:46:17.626Z,45.63
2018-04-27T08:48:45.088Z,44.86
2018-04-27T08:51:12.591Z,44.72
2018-04-27T08:53:40.130Z,45.76
2018-04-27T08:56:07.655Z,45.97
2018-04-27T08:58:35.154Z,46.29
2018-04-27T09:01:02.651Z,46.82
2018-04-27T09:03:30.115Z,46.39
2018-04-27T09:05:57.579Z,45.57
2018-04-27T09:08:25.173Z,45.97
2018-04-27T09:10:52.695Z,46.66
2018-04-27T09:13:20.818Z,47.47
2018-04-27T09:15:49.362Z,46.99
2018-04-27T09:18:16.851Z,47.22
2018-04-27T09:20:44.322Z,47.65
2018-04-27T09:23:11.784Z,47.62
2018-04-27T09:25:39.445Z,46.55
2018-04-27T09:28:06.976Z,46.91
2018-04-27T09:30:34.438Z,46.30
2018-04-27T09:33:01.907Z,45.29
2018-04-27T09:35:29.365Z,46.87
2018-04-27T09:37:56.906Z,47.22
2018-04-27T09:40:24.355Z,45.75
2018-04-27T09:42:51.836Z,44.22
2018-04-27T09:45:19.338Z,44.73
2018-04-27T09:47:46.844Z,42.94
2018-04-27T09:50:14.433Z,43.81
2018-04-27T09:52:41.908Z,43.22
2018-04-27T09:55:09.359Z,40.53
2018-04-27T09:57:36.827Z,40.37
2018-04-27T10:00:04.366Z,40.98
2018-04-27T10:02:31.855Z,41.14
2018-04-27T10:04:59.344Z,39.39
2018-04-27T10:07:26.908Z,38.42
2018-04-27T10:09:54.402Z,37.32
2018-04-27T10:12:21.901Z,36.24
2018-04-27T10:14:49.380Z,36.95
2018-04-27T10:17:16.902Z,35.67
2018-04-27T10:19:44.375Z,34.72
2018-04-27T10:22:11.863Z,35.35
2018-04-27T10:24:39.366Z,35.61
2018-04-27T10:27:06.903Z,35.75
2018-04-27T10:29:34.420Z,36.00
2018-04-27T10:32:01.919Z,34.23
2018-04-27T10:34:29.458Z,34.52
2018-04-27T10:36:56.929Z,34.65
2018-04-27T10:39:24.500Z,33.85
2018-04-27T10:41:51.997Z,32.66
2018-04-27T10:44:19.500Z,33.55
2018-04-27T10:46:46.980Z,33.21
2018-04-27T10:49:14.549Z,33.21
2018-04-27T10:51:42.039Z,32.81
2018-04-27T10:54:09.666Z,32.20
2018-04-27T10:56:37.185Z,32.50
2018-04-27T10:59:04.662Z,32.82
2018-04-27T11:01:32.236Z,33.55
2018-04-27T11:03:59.753Z,33.37
2018-04-27T11:06:27.316Z,33.78
2018-04-27T11:08:54.815Z,34.07
2018-04-27T11:11:22.408Z,33.67
2018-04-27T11:13:49.978Z,33.75
2018-04-27T11:16:17.510Z,33.80
2018-04-27T11:18:45.494Z,34.22
2018-04-27T11:21:13.315Z,34.42
2018-04-27T11:23:41.566Z,34.39
2018-04-27T11:26:09.093Z,31.85
2018-04-27T11:28:36.581Z,31.36
2018-04-27T11:31:04.050Z,30.90
2018-04-27T11:33:31.547Z,30.95
2018-04-27T11:35:59.102Z,30.85
2018-04-27T11:38:26.594Z,31.14
2018-04-27T11:40:55.444Z,31.04
2018-04-27T11:43:22.921Z,31.44
2018-04-27T11:45:51.406Z,31.00
2018-04-27T11:48:18.906Z,30.69
2018-04-27T11:50:46.390Z,30.34
2018-04-27T11:53:13.888Z,30.00
2018-04-27T11:55:41.382Z,30.01
2018-04-27T11:58:08.995Z,29.55
2018-04-27T12:00:36.560Z,29.08
2018-04-27T12:03:04.050Z,29.24
2018-04-27T12:05:31.541Z,29.08
2018-04-27T12:07:59.075Z,29.05
2018-04-27T12:10:26.638Z,29.36
2018-04-27T12:12:54.131Z,29.67
2018-04-27T12:15:21.633Z,30.17
2018-04-27T12:17:49.090Z,29.11
2018-04-27T12:20:16.584Z,28.58
2018-04-27T12:22:44.086Z,28.87
2018-04-27T12:25:11.566Z,28.62
2018-04-27T12:27:39.060Z,27.88
2018-04-27T12:30:06.603Z,27.65
2018-04-27T12:32:34.081Z,27.65
2018-04-27T12:35:01.581Z,27.80
2018-04-27T12:37:29.078Z,27.79
2018-04-27T12:39:56.575Z,27.30
2018-04-27T12:42:24.085Z,27.52
2018-04-27T12:44:51.602Z,26.79
2018-04-27T12:47:19.146Z,26.93
2018-04-27T12:49:46.658Z,27.14
2018-04-27T12:52:14.164Z,27.36
2018-04-27T12:54:42.615Z,26.90
2018-04-27T12:57:10.120Z,26.96
2018-04-27T12:59:37.598Z,26.71
2018-04-27T13:02:05.075Z,27.24
2018-04-27T13:04:32.542Z,27.12
2018-04-27T13:07:00.043Z,27.19
2018-04-27T13:09:27.517Z,27.05
2018-04-27T13:11:55.039Z,26.85
2018-04-27T13:14:22.530Z,26.81
2018-04-27T13:16:50.067Z,27.28
2018-04-27T13:19:17.539Z,27.61
2018-04-27T13:21:44.999Z,27.27
2018-04-27T13:24:12.549Z,26.69
2018-04-27T13:26:40.071Z,26.52
2018-04-27T13:29:07.576Z,26.87
2018-04-27T13:31:35.084Z,26.59
2018-04-27T13:34:02.560Z,27.15
2018-04-27T13:36:30.028Z,26.97
2018-04-27T13:39:15.001Z,27.08
2018-04-27T13:41:43.850Z,27.00
2018-04-27T13:44:11.352Z,26.43
2018-04-27T13:46:38.869Z,26.34
2018-04-27T13:49:06.336Z,26.63
2018-04-27T13:51:33.841Z,26.78
2018-04-27T13:54:01.377Z,26.57
2018-04-27T13:56:28.919Z,26.88
2018-04-27T13:58:56.405Z,26.84
2018-04-27T14:01:23.917Z,27.15
2018-04-27T14:03:52.360Z,26.48
2018-04-27T14:06:19.847Z,26.64
2018-04-27T14:08:52.062Z,26.08
2018-04-27T14:11:19.679Z,25.24
2018-04-27T14:13:47.249Z,24.49
2018-04-27T14:16:14.763Z,23.97
2018-04-27T14:18:42.280Z,23.61
2018-04-27T14:21:09.773Z,22.47
2018-04-27T14:23:37.263Z,21.43
2018-04-27T14:26:04.747Z,21.42
2018-04-27T14:28:32.225Z,21.43
2018-04-27T14:30:59.687Z,21.32
2018-04-27T14:33:27.164Z,21.18
2018-04-27T14:35:54.652Z,20.13
2018-04-27T14:38:22.113Z,20.91
2018-04-27T14:40:49.621Z,21.38
2018-04-27T14:43:17.099Z,20.65
2018-04-27T14:45:44.591Z,19.60
2018-04-27T14:48:12.151Z,19.57
2018-04-27T14:50:41.308Z,19.76
2018-04-27T14:53:08.830Z,19.67
2018-04-27T14:55:36.437Z,19.95
2018-04-27T14:58:04.000Z,19.82
2018-04-27T15:00:31.557Z,19.85
2018-04-27T15:02:59.237Z,19.99
2018-04-27T15:05:26.733Z,19.71
2018-04-27T15:07:54.321Z,19.72
2018-04-27T15:10:22.185Z,19.91
2018-04-27T15:12:49.777Z,19.53
2018-04-27T15:15:17.478Z,20.15
2018-04-27T15:17:45.046Z,20.12
2018-04-27T15:20:12.576Z,20.03
2018-04-27T15:22:40.066Z,19.46
2018-04-27T15:25:07.593Z,19.73
2018-04-27T15:27:35.314Z,19.54
2018-04-27T15:30:02.830Z,19.25
2018-04-27T15:32:30.367Z,20.28
2018-04-27T15:34:57.884Z,20.16
2018-04-27T15:37:25.444Z,20.49
2018-04-27T15:39:52.999Z,19.50
2018-04-27T15:42:20.601Z,18.61
2018-04-27T15:44:48.124Z,18.07
2018-04-27T15:47:15.648Z,18.52
2018-04-27T15:49:43.219Z,18.72
2018-04-27T15:52:10.807Z,18.54
2018-04-27T15:54:38.347Z,19.20
2018-04-27T15:57:05.955Z,18.92
2018-04-27T15:59:33.518Z,19.50
2018-04-27T16:02:01.100Z,19.11
2018-04-27T16:04:28.730Z,18.99
2018-04-27T16:06:57.312Z,18.66
2018-04-27T16:09:25.107Z,18.51
2018-04-27T16:11:52.692Z,19.17
2018-04-27T16:14:20.254Z,19.42
2018-04-27T16:16:47.819Z,19.64
2018-04-27T16:19:15.336Z,20.51
2018-04-27T16:21:42.897Z,20.55
2018-04-27T16:24:10.459Z,20.57
2018-04-27T16:26:38.110Z,19.78
2018-04-27T16:29:05.710Z,19.72
2018-04-27T16:31:33.404Z,20.43
2018-04-27T16:34:01.012Z,20.67
2018-04-27T16:36:29.123Z,20.68
2018-04-27T16:38:56.655Z,21.45
2018-04-27T16:41:24.768Z,20.92
2018-04-27T16:43:52.450Z,20.87
2018-04-27T16:46:19.967Z,21.08
2018-04-27T16:48:47.528Z,21.57
2018-04-27T16:51:15.827Z,21.00
2018-04-27T16:53:43.335Z,21.87
2018-04-27T16:56:10.857Z,21.99
2018-04-27T16:58:38.372Z,23.13
2018-04-27T17:01:05.902Z,23.32
2018-04-27T17:03:33.471Z,23.62
2018-04-27T17:06:06.778Z,24.02
2018-04-27T17:08:34.366Z,24.06
2018-04-27T17:11:01.933Z,24.21
2018-04-27T17:13:29.493Z,24.76
2018-04-27T17:15:57.033Z,25.83
2018-04-27T17:18:25.774Z,26.78
2018-04-27T17:20:53.344Z,26.65
2018-04-27T17:23:20.853Z,27.07
2018-04-27T17:25:48.412Z,27.84
2018-04-27T17:28:15.989Z,28.72
2018-04-27T17:30:43.615Z,30.04
2018-04-27T17:33:11.241Z,31.60
2018-04-27T17:35:38.744Z,33.43
2018-04-27T17:38:06.306Z,36.07
2018-04-27T17:40:33.852Z,37.86
2018-04-27T17:43:01.470Z,39.90
2018-04-27T17:45:28.982Z,41.55
2018-04-27T17:47:56.538Z,42.88
2018-04-27T17:50:24.099Z,44.13
2018-04-27T17:52:51.635Z,45.23
2018-04-27T17:55:19.231Z,46.25
2018-04-27T17:57:46.716Z,47.19
2018-04-27T18:00:14.287Z,47.74
2018-04-27T18:02:41.799Z,49.08
2018-04-27T18:05:09.307Z,49.94
2018-04-27T18:07:36.804Z,50.45
2018-04-27T18:10:04.337Z,51.24
2018-04-27T18:12:31.944Z,51.94
2018-04-27T18:14:59.476Z,52.44
2018-04-27T18:17:27.047Z,53.07
2018-04-27T18:19:54.551Z,53.63
2018-04-27T18:22:22.110Z,54.20
2018-04-27T18:24:49.624Z,54.61
2018-04-27T18:27:17.166Z,54.68
2018-04-27T18:29:44.747Z,55.15
2018-04-27T18:32:12.240Z,55.59
2018-04-27T18:34:40.009Z,56.27
2018-04-27T18:37:07.570Z,56.57
2018-04-27T18:39:35.108Z,56.75
2018-04-27T18:42:02.639Z,56.94
2018-04-27T18:44:30.157Z,57.12
2018-04-27T18:46:57.816Z,57.67
2018-04-27T18:49:25.379Z,58.04
2018-04-27T18:51:52.955Z,58.08
2018-04-27T18:54:20.488Z,57.98
2018-04-27T18:56:48.877Z,58.24
2018-04-27T18:59:16.412Z,58.35
2018-04-27T19:01:43.911Z,58.61
2018-04-27T19:04:11.462Z,58.95
2018-04-27T19:06:39.032Z,59.51
2018-04-27T19:09:06.583Z,59.44
2018-04-27T19:11:34.188Z,59.30
2018-04-27T19:14:01.732Z,59.25
2018-04-27T19:16:29.286Z,59.70
2018-04-27T19:18:56.815Z,59.92
2018-04-27T19:21:24.400Z,60.30
2018-04-27T19:23:52.672Z,60.34
2018-04-27T19:26:21.188Z,60.20
2018-04-27T19:28:48.714Z,60.36
2018-04-27T19:31:16.230Z,60.31
2018-04-27T19:33:43.883Z,60.42
2018-04-27T19:36:11.424Z,60.78
2018-04-27T19:38:39.092Z,60.91
2018-04-27T19:41:06.564Z,61.03
2018-04-27T19:43:34.053Z,61.17
2018-04-27T19:46:01.594Z,61.21
2018-04-27T19:48:29.889Z,61.00
2018-04-27T19:50:57.493Z,61.37
2018-04-27T19:53:25.025Z,61.33
2018-04-27T19:55:52.555Z,61.86
2018-04-27T19:58:20.091Z,61.99
2018-04-27T20:00:47.603Z,61.99
2018-04-27T20:03:15.136Z,62.20
2018-04-27T20:05:44.505Z,62.62
2018-04-27T20:08:12.038Z,63.08
2018-04-27T20:10:42.589Z,63.27
2018-04-27T20:13:12.998Z,63.09
2018-04-27T20:15:41.422Z,62.77
2018-04-27T20:18:21.509Z,62.90
2018-04-27T20:20:49.113Z,63.27
2018-04-27T20:23:17.524Z,63.33
2018-04-27T20:25:47.938Z,63.41
2018-04-27T20:28:15.527Z,63.83
2018-04-27T20:30:43.106Z,64.15
2018-04-27T20:33:14.508Z,64.66
2018-04-27T20:35:42.161Z,64.56
2018-04-27T20:38:15.275Z,64.87
2018-04-27T20:40:42.884Z,64.92
2018-04-27T20:43:12.228Z,64.98
2018-04-27T20:45:39.759Z,64.79
2018-04-27T20:51:03.394Z,65.28
2018-04-27T20:53:31.722Z,65.52
2018-04-27T20:56:06.133Z,65.49
2018-04-27T20:58:33.679Z,65.97
2018-04-27T21:01:01.189Z,66.49
2018-04-27T21:03:28.748Z,66.74
2018-04-27T21:05:56.314Z,66.94
2018-04-27T21:08:23.893Z,66.80
2018-04-27T21:10:51.415Z,66.82
2018-04-27T21:13:19.138Z,66.93
2018-04-27T21:15:46.648Z,67.40
2018-04-27T21:18:16.072Z,67.77
2018-04-27T21:20:43.648Z,67.86
2018-04-27T21:23:11.359Z,67.98
2018-04-27T21:25:38.884Z,68.17
2018-04-27T21:28:06.407Z,68.56
2018-04-27T21:30:33.907Z,68.94
2018-04-27T21:33:04.415Z,69.03
2018-04-27T21:35:34.763Z,69.37
2018-04-27T21:38:08.990Z,69.69
2018-04-27T21:40:36.507Z,69.68
2018-04-27T21:43:04.048Z,69.95
2018-04-27T21:45:31.946Z,70.16
2018-04-27T21:47:59.474Z,70.47
2018-04-27T21:50:26.972Z,70.70
2018-04-27T21:52:54.575Z,70.76
2018-04-27T21:55:22.091Z,70.84
2018-04-27T21:58:09.246Z,70.84
2018-04-27T22:00:36.828Z,70.93
2018-04-27T22:03:10.276Z,70.90
2018-04-27T22:05:50.522Z,70.71
2018-04-27T22:08:21.402Z,70.87
2018-04-27T22:10:49.717Z,70.89
2018-04-27T22:13:18.966Z,71.35
2018-04-27T22:15:46.514Z,71.40
2018-04-27T22:18:13.990Z,71.28
2018-04-27T22:20:47.297Z,71.21
2018-04-27T22:23:15.405Z,71.72
2018-04-27T22:25:43.756Z,71.78
2018-04-27T22:28:11.354Z,71.77
2018-04-27T22:30:39.630Z,72.17
2018-04-27T22:33:15.026Z,72.15
2018-04-27T22:35:47.313Z,72.29
2018-04-27T22:41:19.578Z,72.87
2018-04-27T22:43:58.179Z,72.95
2018-04-27T22:46:25.683Z,73.42
2018-04-27T22:49:03.097Z,73.76
2018-04-27T22:51:35.529Z,74.02
2018-04-27T22:54:04.727Z,74.22
2018-04-27T22:56:47.562Z,74.64
2018-04-27T22:59:15.082Z,74.79
2018-04-27T23:01:42.607Z,74.85
2018-04-27T23:04:10.173Z,75.13
2018-04-27T23:06:37.702Z,75.25
2018-04-27T23:09:05.271Z,75.75
2018-04-27T23:11:32.786Z,76.06
2018-04-27T23:14:10.258Z,76.37
2018-04-27T23:16:37.819Z,76.61
2018-04-27T23:19:08.259Z,77.39
2018-04-27T23:21:38.255Z,77.73
2018-04-27T23:24:06.560Z,78.04
2018-04-27T23:26:34.144Z,78.46
2018-04-27T23:29:01.659Z,78.77
2018-04-27T23:31:29.228Z,79.09
2018-04-27T23:33:56.776Z,79.59
2018-04-27T23:36:24.325Z,79.77
2018-04-27T23:38:51.855Z,79.96
2018-04-27T23:41:19.381Z,80.49
2018-04-27T23:43:46.896Z,80.75
2018-04-27T23:46:14.420Z,80.69
2018-04-27T23:48:41.972Z,80.85
2018-04-27T23:51:09.485Z,80.89
2018-04-27T23:53:37.973Z,81.18
2018-04-27T23:56:07.660Z,81.67
2018-04-27T23:58:35.232Z,81.72
